Kocubej, Russia
Current Conditions -  °F | °C
As of 7:30 AM on Friday 31 Oct 2014 (Local Time) from URWA Reporting Station
Clear Clear  
Wind Chill: 29°   Ceiling: Unl
Heat Index: 36°   Visibility: 6mi
Dew Point: 32°   Wind: 9mph
Humidity: 87%   Direction: 80°E
Pressure: 30.21"   Gusts: NA
Location:  44.4°N, 46.55°E
Report Text: URWA 310430Z 08004MPS CAVOK 02/M00 Q1023 NOSIG RMK QFE769/1026SC070
Loading
Personal Weather Stations






























Interactive Weather Map
Tropical Storm Tracking
New forecast layout! Learn more

10-Day Weather Forecast

Advertisements
Track Severe Weather on mobile